Pagrindinis puslapis
METAR-TAF:

METAR-TAF

Oro uostai :

Haidarabadas, Indija

platuma: 17-27N, ilguma: 078-28E, Aukštis: 530 m

Dabartinis oras

Ataskaita buvo paskelbta 31 minutes, ne 14:30 UTC
Vėjas 3 kt iš Šiaurės
Temperatūra 29°C
Drėgmė 79%
Slėgis 1009 hPa
Matomumas: 6000 m
Mažai debesys ne aukštis 1500 ft

METAR: VOHY 171430Z 01003KT 6000 FEW015 29/25 Q1009 NOSIG

Laikas: 20:31 (15:01 UTC)

Prognozė

Ataskaita buvo paskelbta 4 valandos ir 1 minutes, ne 11:00 UTC
Prognozė galioja nuo 17 metu 12 UTC su 17 metu 21 UTC
Vėjas 8 kt iš Vakarų/Šiaurės Vakarų
Matomumas: 6000 m
Išsisklaidę debesys ne aukštis 1500 ft
Su prošvaistėmis ne aukštis 8000 ft
Laikinai
nuo 17 metu 12 UTC su 17 metu 21 UTC
Matomumas: 3000 m
Išsisklaidę debesys ne aukštis 1000 ft
Apsiniaukę ne aukštis 8000 ft
lietus
Tapsmas
nuo 17 metu 16 UTC su 17 metu 18 UTC
Vėjas 7 kt iš Vakarų/Šiaurės Vakarų
Matomumas: 5000 m
migla

TAF: VOHY 171100Z 1712/1721 30008KT 6000 SCT015 BKN080 TEMPO 1712/1721 3000 RA SCT010 OVC080 BECMG 1716/1718 30007KT 5000 HZ

Orai ataskaitas ir orų prognozės (METAR, TAF).

turimą stotys yra geltonos ir raudonos taškus žemėlapyje.

Perkelti pele per norėdami pamatyti stoties vardą.

Tada spustelėkite, norėdami matyti oro stebėjimo ir prognozės.

Norėdami pakeisti žemėlapį: spustelėkite ant žalios mygtukų su juodo kryžiaus žemyn,; žalią mygtuką su brūkšneliu, jei norite nutolinti; arba žalių rodyklių gretimoms žemėlapius.


METAR-TAF: